Terminal Aerodrome Forecast
Issued by NWS

Home | Current Version | Previous Version | Text Only | Print | Product List | Glossary On
Versions: 1 2 3 4 5 6 7 8 9 10 11 12
000
FTUS45 KVEF 270533
TAFDAG
TAF
KDAG 270533Z 2706/2806 25015KT P6SM FEW180 BKN230
     FM271600 32008KT P6SM SCT250
     FM272000 02008KT P6SM FEW250
     FM280000 23012KT P6SM FEW250=

USA.gov is the U.S. government's official web portal to all federal, state and local government web resources and services.